Cocoa Beach, FL

10:10 PM EST on November 23, 2014 (GMT -0500)
Melbourne International | Change Station
CLOSE
Current Station
Airport
Location: Melbourne,
Elevation: 33 ft
Nearby Weather Stations

Elev 33 ft 28.10 °N, 80.65 °W | Updated 17 minutes ago

Clear
Clear
77 °F
Feels Like 77 °F
N
8
Wind Variable Wind from South

Today
High -- | Low -- °F
--% Chance of Precip.
Yesterday
High -- | Low -- °F
Precip. -- in
6:50 AM 5:26 PM
Waxing Crescent, 3% visible
Pressure 29.95 in
Visibility 10.0 miles
Clouds Clear
Dew Point 73 °F
Humidity 88%
Rainfall 0.04 in
Snow Depth Not available.
UV 0 out of 12
Pollen .60 out of 12
Air Quality Not available.
Flu Activity Not available.
METAR KMLB 240253Z 17007KT 10SM CLR 25/23 A2995 RMK AO2 SLP142 T02500228 53009

More Conditions Fewer Conditions

Pressure 29.95 in
Visibility 10.0 miles
Clouds Clear
Dew Point 73 °F
Humidity 88%
Rainfall 0.04 in
Snow Depth Not available.
UV 0 out of 12
Pollen .60 out of 12
Air Quality Not available.
Flu Activity Not available.
METAR KMLB 240253Z 17007KT 10SM CLR 25/23 A2995 RMK AO2 SLP142 T02500228 53009

More Conditions Fewer Conditions

Nowcast | as of 9:44 PM EST on November 23, 2014

A line of storms continues to weaken overnight as it moves across North Florida and into the Atlantic. The storms are expected to remain north of Leesburg and Daytona Beach. A moist atmosphere and light southerly winds will provide a favorable environment for patchy fog to form after midnight. Scattered showers and isolated storms will be possible over the Gulf Stream . A Small Craft Advisory remains in effect for the coastal waters beyond 20 miles of land. Small craft operators should exercise caution for seas to 6 feet and southerly winds to 20 mph between land and 20 miles offshore. Additional details...including graphics are available online at: http://www.Srh.NOAA.Gov/mlb/blog.Php

×

10-Day Weather Forecast

Almanac

Astronomy

Nov. 23, 2014 Rise Set
Actual Time
Civil Twilight
Nautical Twilight
Astronomical Twilight
Moon
Length of Visible Light
Length of Day
Tomorrow will be .
, % of the Moon is Illuminated

Today's Extremes

State Highs State Lows

Community

WunderPhotos

Upload Photos

1,773,257 photos uploaded!

WunderBlogs® & News

Nearby

Air Quality

  Air Quality AQ Index Pollutant
Not available.

Snow Depth

Station Depth Elevation

Earthquake Activity

City Distance Mag. Time & Date
Minimum magnitude displayed is 2.5.

Coastal Water Temperatures

Place Temperature

Nearby Weather Stations